sensor_id;sensor_type;location;lat;lon;timestamp;temperature;humidity
42489;DHT22;28118;52.388;9.452;2022-11-23T00:01:29;6.90;99.90
42489;DHT22;28118;52.388;9.452;2022-11-23T00:03:59;6.90;99.90
42489;DHT22;28118;52.388;9.452;2022-11-23T00:06:26;6.90;99.90
42489;DHT22;28118;52.388;9.452;2022-11-23T00:08:53;6.90;99.90
42489;DHT22;28118;52.388;9.452;2022-11-23T00:11:21;6.90;99.90
42489;DHT22;28118;52.388;9.452;2022-11-23T00:13:50;6.90;99.90
42489;DHT22;28118;52.388;9.452;2022-11-23T00:16:28;7.00;99.90
42489;DHT22;28118;52.388;9.452;2022-11-23T00:18:56;7.00;99.90
42489;DHT22;28118;52.388;9.452;2022-11-23T00:21:25;7.00;99.90
42489;DHT22;28118;52.388;9.452;2022-11-23T00:23:52;7.00;99.90
42489;DHT22;28118;52.388;9.452;2022-11-23T00:26:18;7.00;99.90
42489;DHT22;28118;52.388;9.452;2022-11-23T00:28:45;7.00;99.90
42489;DHT22;28118;52.388;9.452;2022-11-23T00:31:15;7.00;99.90
42489;DHT22;28118;52.388;9.452;2022-11-23T00:33:47;7.10;99.90
42489;DHT22;28118;52.388;9.452;2022-11-23T00:36:14;7.10;99.90
42489;DHT22;28118;52.388;9.452;2022-11-23T00:38:42;7.10;99.90
42489;DHT22;28118;52.388;9.452;2022-11-23T00:41:15;7.10;99.90
42489;DHT22;28118;52.388;9.452;2022-11-23T00:43:42;7.10;99.90
42489;DHT22;28118;52.388;9.452;2022-11-23T00:46:20;7.10;99.90
42489;DHT22;28118;52.388;9.452;2022-11-23T00:48:49;7.10;99.90
42489;DHT22;28118;52.388;9.452;2022-11-23T00:51:18;7.10;99.90
42489;DHT22;28118;52.388;9.452;2022-11-23T00:53:46;7.10;99.90
42489;DHT22;28118;52.388;9.452;2022-11-23T00:56:13;7.20;99.90
42489;DHT22;28118;52.388;9.452;2022-11-23T00:58:39;7.20;99.90
42489;DHT22;28118;52.388;9.452;2022-11-23T01:01:11;7.20;99.90
42489;DHT22;28118;52.388;9.452;2022-11-23T01:03:40;7.20;99.90
42489;DHT22;28118;52.388;9.452;2022-11-23T01:06:10;7.10;99.90
42489;DHT22;28118;52.388;9.452;2022-11-23T01:08:37;7.10;99.90
42489;DHT22;28118;52.388;9.452;2022-11-23T01:11:10;7.10;99.90
42489;DHT22;28118;52.388;9.452;2022-11-23T01:13:38;7.10;99.90
42489;DHT22;28118;52.388;9.452;2022-11-23T01:16:13;7.10;99.90
42489;DHT22;28118;52.388;9.452;2022-11-23T01:18:54;7.10;99.90
42489;DHT22;28118;52.388;9.452;2022-11-23T01:21:22;7.10;99.90
42489;DHT22;28118;52.388;9.452;2022-11-23T01:23:49;7.10;99.90
42489;DHT22;28118;52.388;9.452;2022-11-23T01:26:16;7.10;99.90
42489;DHT22;28118;52.388;9.452;2022-11-23T01:28:43;7.10;99.90
42489;DHT22;28118;52.388;9.452;2022-11-23T01:31:13;7.10;99.90
42489;DHT22;28118;52.388;9.452;2022-11-23T01:33:40;7.10;99.90
42489;DHT22;28118;52.388;9.452;2022-11-23T01:36:17;7.10;99.90
42489;DHT22;28118;52.388;9.452;2022-11-23T01:38:45;7.10;99.90
42489;DHT22;28118;52.388;9.452;2022-11-23T01:41:15;7.10;99.90
42489;DHT22;28118;52.388;9.452;2022-11-23T01:43:42;7.10;99.90
42489;DHT22;28118;52.388;9.452;2022-11-23T01:46:09;7.10;99.90
42489;DHT22;28118;52.388;9.452;2022-11-23T01:48:39;7.10;99.90
42489;DHT22;28118;52.388;9.452;2022-11-23T01:51:12;7.00;99.90
42489;DHT22;28118;52.388;9.452;2022-11-23T01:53:40;7.10;99.90
42489;DHT22;28118;52.388;9.452;2022-11-23T01:56:10;7.00;99.90
42489;DHT22;28118;52.388;9.452;2022-11-23T01:58:42;7.00;99.90
42489;DHT22;28118;52.388;9.452;2022-11-23T02:01:10;7.00;99.90
42489;DHT22;28118;52.388;9.452;2022-11-23T02:03:38;7.00;99.90
42489;DHT22;28118;52.388;9.452;2022-11-23T02:06:10;7.00;99.90
42489;DHT22;28118;52.388;9.452;2022-11-23T02:08:37;7.00;99.90
42489;DHT22;28118;52.388;9.452;2022-11-23T02:11:04;7.00;99.90
42489;DHT22;28118;52.388;9.452;2022-11-23T02:13:31;7.10;99.90
42489;DHT22;28118;52.388;9.452;2022-11-23T02:15:57;7.20;99.90
42489;DHT22;28118;52.388;9.452;2022-11-23T02:18:28;7.30;99.90
42489;DHT22;28118;52.388;9.452;2022-11-23T02:21:00;7.40;99.90
42489;DHT22;28118;52.388;9.452;2022-11-23T02:26:24;7.50;99.90
42489;DHT22;28118;52.388;9.452;2022-11-23T02:31:32;7.50;99.90
42489;DHT22;28118;52.388;9.452;2022-11-23T02:33:59;7.60;99.90
42489;DHT22;28118;52.388;9.452;2022-11-23T02:39:11;7.60;99.90
42489;DHT22;28118;52.388;9.452;2022-11-23T02:41:44;7.60;99.90
42489;DHT22;28118;52.388;9.452;2022-11-23T02:46:53;7.60;99.90
42489;DHT22;28118;52.388;9.452;2022-11-23T02:49:19;7.60;99.90
42489;DHT22;28118;52.388;9.452;2022-11-23T02:51:46;7.60;99.90
42489;DHT22;28118;52.388;9.452;2022-11-23T02:54:13;7.70;99.90
42489;DHT22;28118;52.388;9.452;2022-11-23T02:56:39;7.70;99.90
42489;DHT22;28118;52.388;9.452;2022-11-23T02:59:06;7.70;99.90
42489;DHT22;28118;52.388;9.452;2022-11-23T03:01:33;7.70;99.90
42489;DHT22;28118;52.388;9.452;2022-11-23T03:04:00;7.70;99.90
42489;DHT22;28118;52.388;9.452;2022-11-23T03:06:26;7.70;99.90
42489;DHT22;28118;52.388;9.452;2022-11-23T03:08:53;7.70;99.90
42489;DHT22;28118;52.388;9.452;2022-11-23T03:11:19;7.80;99.90
42489;DHT22;28118;52.388;9.452;2022-11-23T03:13:46;7.70;99.90
42489;DHT22;28118;52.388;9.452;2022-11-23T03:16:13;7.70;99.90
42489;DHT22;28118;52.388;9.452;2022-11-23T03:18:39;7.70;99.90
42489;DHT22;28118;52.388;9.452;2022-11-23T03:21:06;7.70;99.90
42489;DHT22;28118;52.388;9.452;2022-11-23T03:23:36;7.70;99.90
42489;DHT22;28118;52.388;9.452;2022-11-23T03:26:02;7.80;99.90
42489;DHT22;28118;52.388;9.452;2022-11-23T03:28:36;7.70;99.90
42489;DHT22;28118;52.388;9.452;2022-11-23T03:31:04;7.70;99.90
42489;DHT22;28118;52.388;9.452;2022-11-23T03:33:30;7.80;99.90
42489;DHT22;28118;52.388;9.452;2022-11-23T03:35:57;7.70;99.90
42489;DHT22;28118;52.388;9.452;2022-11-23T03:38:23;7.70;99.90
42489;DHT22;28118;52.388;9.452;2022-11-23T03:40:50;7.80;99.90
42489;DHT22;28118;52.388;9.452;2022-11-23T03:43:17;7.70;99.90
42489;DHT22;28118;52.388;9.452;2022-11-23T03:45:44;7.70;99.90
42489;DHT22;28118;52.388;9.452;2022-11-23T03:48:12;7.70;99.90
42489;DHT22;28118;52.388;9.452;2022-11-23T03:50:39;7.70;99.90
42489;DHT22;28118;52.388;9.452;2022-11-23T03:53:05;7.70;99.90
42489;DHT22;28118;52.388;9.452;2022-11-23T03:55:33;7.70;99.90
42489;DHT22;28118;52.388;9.452;2022-11-23T03:57:59;7.70;99.90
42489;DHT22;28118;52.388;9.452;2022-11-23T04:00:27;7.70;99.90
42489;DHT22;28118;52.388;9.452;2022-11-23T04:02:54;7.70;99.90
42489;DHT22;28118;52.388;9.452;2022-11-23T04:05:21;7.70;99.90
42489;DHT22;28118;52.388;9.452;2022-11-23T04:07:48;7.60;99.90
42489;DHT22;28118;52.388;9.452;2022-11-23T04:10:17;7.60;99.90
42489;DHT22;28118;52.388;9.452;2022-11-23T04:12:44;7.60;99.90
42489;DHT22;28118;52.388;9.452;2022-11-23T04:15:11;7.60;99.90
42489;DHT22;28118;52.388;9.452;2022-11-23T04:17:37;7.60;99.90
42489;DHT22;28118;52.388;9.452;2022-11-23T04:20:05;7.60;99.90
42489;DHT22;28118;52.388;9.452;2022-11-23T04:22:31;7.60;99.90
42489;DHT22;28118;52.388;9.452;2022-11-23T04:24:58;7.50;99.90
42489;DHT22;28118;52.388;9.452;2022-11-23T04:27:25;7.40;99.90
42489;DHT22;28118;52.388;9.452;2022-11-23T04:29:52;7.40;99.90
42489;DHT22;28118;52.388;9.452;2022-11-23T04:32:18;7.40;99.90
42489;DHT22;28118;52.388;9.452;2022-11-23T04:34:45;7.40;99.90
42489;DHT22;28118;52.388;9.452;2022-11-23T04:37:11;7.30;99.90
42489;DHT22;28118;52.388;9.452;2022-11-23T04:39:39;7.40;99.90
42489;DHT22;28118;52.388;9.452;2022-11-23T04:42:05;7.40;99.90
42489;DHT22;28118;52.388;9.452;2022-11-23T04:44:32;7.30;99.90
42489;DHT22;28118;52.388;9.452;2022-11-23T04:46:59;7.40;99.90
42489;DHT22;28118;52.388;9.452;2022-11-23T04:49:25;7.40;99.90
42489;DHT22;28118;52.388;9.452;2022-11-23T04:51:52;7.40;99.90
42489;DHT22;28118;52.388;9.452;2022-11-23T04:54:19;7.40;99.90
42489;DHT22;28118;52.388;9.452;2022-11-23T04:56:45;7.30;99.90
42489;DHT22;28118;52.388;9.452;2022-11-23T04:59:12;7.30;99.90
42489;DHT22;28118;52.388;9.452;2022-11-23T05:01:39;7.30;99.90
42489;DHT22;28118;52.388;9.452;2022-11-23T05:04:05;7.30;99.90
42489;DHT22;28118;52.388;9.452;2022-11-23T05:06:32;7.30;99.90
42489;DHT22;28118;52.388;9.452;2022-11-23T05:08:58;7.40;99.90
42489;DHT22;28118;52.388;9.452;2022-11-23T05:11:25;7.40;99.90
42489;DHT22;28118;52.388;9.452;2022-11-23T05:13:52;7.40;99.90
42489;DHT22;28118;52.388;9.452;2022-11-23T05:16:19;7.40;99.90
42489;DHT22;28118;52.388;9.452;2022-11-23T05:18:45;7.40;99.90
42489;DHT22;28118;52.388;9.452;2022-11-23T05:21:12;7.40;99.90
42489;DHT22;28118;52.388;9.452;2022-11-23T05:23:39;7.40;99.90
42489;DHT22;28118;52.388;9.452;2022-11-23T05:26:05;7.40;99.90
42489;DHT22;28118;52.388;9.452;2022-11-23T05:28:32;7.50;99.90
42489;DHT22;28118;52.388;9.452;2022-11-23T05:31:07;7.40;99.90
42489;DHT22;28118;52.388;9.452;2022-11-23T05:33:35;7.40;99.90
42489;DHT22;28118;52.388;9.452;2022-11-23T05:36:01;7.40;99.90
42489;DHT22;28118;52.388;9.452;2022-11-23T05:38:28;7.40;99.90
42489;DHT22;28118;52.388;9.452;2022-11-23T05:40:54;7.40;99.90
42489;DHT22;28118;52.388;9.452;2022-11-23T05:43:21;7.40;99.90
42489;DHT22;28118;52.388;9.452;2022-11-23T05:45:48;7.40;99.90
42489;DHT22;28118;52.388;9.452;2022-11-23T05:48:15;7.40;99.90
42489;DHT22;28118;52.388;9.452;2022-11-23T05:50:41;7.40;99.90
42489;DHT22;28118;52.388;9.452;2022-11-23T05:53:09;7.40;99.90
42489;DHT22;28118;52.388;9.452;2022-11-23T05:55:35;7.50;99.90
42489;DHT22;28118;52.388;9.452;2022-11-23T05:58:02;7.50;99.90
42489;DHT22;28118;52.388;9.452;2022-11-23T06:00:29;7.50;99.90
42489;DHT22;28118;52.388;9.452;2022-11-23T06:03:00;7.50;99.90
42489;DHT22;28118;52.388;9.452;2022-11-23T06:05:27;7.50;99.90
42489;DHT22;28118;52.388;9.452;2022-11-23T06:07:54;7.50;99.90
42489;DHT22;28118;52.388;9.452;2022-11-23T06:10:21;7.40;99.90
42489;DHT22;28118;52.388;9.452;2022-11-23T06:12:48;7.40;99.90
42489;DHT22;28118;52.388;9.452;2022-11-23T06:15:18;7.30;99.90
42489;DHT22;28118;52.388;9.452;2022-11-23T06:17:45;7.20;99.90
42489;DHT22;28118;52.388;9.452;2022-11-23T06:20:12;7.10;99.90
42489;DHT22;28118;52.388;9.452;2022-11-23T06:22:38;7.10;99.90
42489;DHT22;28118;52.388;9.452;2022-11-23T06:25:05;7.10;99.90
42489;DHT22;28118;52.388;9.452;2022-11-23T06:27:32;7.00;99.90
42489;DHT22;28118;52.388;9.452;2022-11-23T06:30:30;7.00;99.90
42489;DHT22;28118;52.388;9.452;2022-11-23T06:32:57;7.00;99.90
42489;DHT22;28118;52.388;9.452;2022-11-23T06:35:23;7.00;99.90
42489;DHT22;28118;52.388;9.452;2022-11-23T06:37:51;7.00;99.90
42489;DHT22;28118;52.388;9.452;2022-11-23T06:40:20;7.10;99.90
42489;DHT22;28118;52.388;9.452;2022-11-23T06:42:46;7.10;99.90
42489;DHT22;28118;52.388;9.452;2022-11-23T06:45:14;7.10;99.90
42489;DHT22;28118;52.388;9.452;2022-11-23T06:47:40;7.10;99.90
42489;DHT22;28118;52.388;9.452;2022-11-23T06:50:07;7.10;99.90
42489;DHT22;28118;52.388;9.452;2022-11-23T06:52:34;7.00;99.90
42489;DHT22;28118;52.388;9.452;2022-11-23T06:55:01;7.00;99.90
42489;DHT22;28118;52.388;9.452;2022-11-23T06:57:28;7.00;99.90
42489;DHT22;28118;52.388;9.452;2022-11-23T06:59:56;7.10;99.90
42489;DHT22;28118;52.388;9.452;2022-11-23T07:02:22;7.00;99.90
42489;DHT22;28118;52.388;9.452;2022-11-23T07:04:50;7.10;99.90
42489;DHT22;28118;52.388;9.452;2022-11-23T07:07:18;7.20;99.90
42489;DHT22;28118;52.388;9.452;2022-11-23T07:09:44;7.20;99.90
42489;DHT22;28118;52.388;9.452;2022-11-23T07:12:11;7.20;99.90
42489;DHT22;28118;52.388;9.452;2022-11-23T07:14:38;7.20;99.90
42489;DHT22;28118;52.388;9.452;2022-11-23T07:17:04;7.20;99.90
42489;DHT22;28118;52.388;9.452;2022-11-23T07:19:31;7.30;99.90
42489;DHT22;28118;52.388;9.452;2022-11-23T07:21:58;7.30;99.90
42489;DHT22;28118;52.388;9.452;2022-11-23T07:24:25;7.30;99.90
42489;DHT22;28118;52.388;9.452;2022-11-23T07:26:51;7.40;99.90
42489;DHT22;28118;52.388;9.452;2022-11-23T07:29:18;7.40;99.90
42489;DHT22;28118;52.388;9.452;2022-11-23T07:31:45;7.40;99.90
42489;DHT22;28118;52.388;9.452;2022-11-23T07:34:11;7.40;99.90
42489;DHT22;28118;52.388;9.452;2022-11-23T07:36:38;7.40;99.90
42489;DHT22;28118;52.388;9.452;2022-11-23T07:39:05;7.40;99.90
42489;DHT22;28118;52.388;9.452;2022-11-23T07:41:31;7.50;99.90
42489;DHT22;28118;52.388;9.452;2022-11-23T07:43:58;7.50;99.90
42489;DHT22;28118;52.388;9.452;2022-11-23T07:46:25;7.50;99.90
42489;DHT22;28118;52.388;9.452;2022-11-23T07:48:52;7.60;99.90
42489;DHT22;28118;52.388;9.452;2022-11-23T07:51:20;7.70;99.90
42489;DHT22;28118;52.388;9.452;2022-11-23T07:53:46;7.80;99.90
42489;DHT22;28118;52.388;9.452;2022-11-23T07:56:13;7.80;99.90
42489;DHT22;28118;52.388;9.452;2022-11-23T07:58:40;7.90;99.90
42489;DHT22;28118;52.388;9.452;2022-11-23T08:01:06;8.00;99.90
42489;DHT22;28118;52.388;9.452;2022-11-23T08:03:33;8.00;99.90
42489;DHT22;28118;52.388;9.452;2022-11-23T08:06:00;8.00;99.90
42489;DHT22;28118;52.388;9.452;2022-11-23T08:08:26;8.10;99.90
42489;DHT22;28118;52.388;9.452;2022-11-23T08:10:53;8.10;99.90
42489;DHT22;28118;52.388;9.452;2022-11-23T08:13:21;8.20;99.90
42489;DHT22;28118;52.388;9.452;2022-11-23T08:15:48;8.20;99.90
42489;DHT22;28118;52.388;9.452;2022-11-23T08:18:22;8.20;99.90
42489;DHT22;28118;52.388;9.452;2022-11-23T08:20:48;8.30;99.90
42489;DHT22;28118;52.388;9.452;2022-11-23T08:23:15;8.30;99.90
42489;DHT22;28118;52.388;9.452;2022-11-23T08:25:42;8.40;99.90
42489;DHT22;28118;52.388;9.452;2022-11-23T08:28:09;8.50;99.90
42489;DHT22;28118;52.388;9.452;2022-11-23T08:30:36;8.50;99.90
42489;DHT22;28118;52.388;9.452;2022-11-23T08:33:04;8.50;99.90
42489;DHT22;28118;52.388;9.452;2022-11-23T08:35:38;8.50;99.90
42489;DHT22;28118;52.388;9.452;2022-11-23T08:38:06;8.60;99.90
42489;DHT22;28118;52.388;9.452;2022-11-23T08:40:33;8.60;99.90
42489;DHT22;28118;52.388;9.452;2022-11-23T08:43:00;8.60;99.90
42489;DHT22;28118;52.388;9.452;2022-11-23T08:45:27;8.70;99.90
42489;DHT22;28118;52.388;9.452;2022-11-23T08:47:58;8.70;99.90
42489;DHT22;28118;52.388;9.452;2022-11-23T08:50:26;8.70;99.90
42489;DHT22;28118;52.388;9.452;2022-11-23T08:52:55;8.70;99.90
42489;DHT22;28118;52.388;9.452;2022-11-23T08:55:23;8.80;99.90
42489;DHT22;28118;52.388;9.452;2022-11-23T08:57:53;8.80;99.90
42489;DHT22;28118;52.388;9.452;2022-11-23T09:00:20;8.90;99.90
42489;DHT22;28118;52.388;9.452;2022-11-23T09:02:46;8.90;99.90
42489;DHT22;28118;52.388;9.452;2022-11-23T09:05:13;9.00;99.90
42489;DHT22;28118;52.388;9.452;2022-11-23T09:07:40;9.10;99.90
42489;DHT22;28118;52.388;9.452;2022-11-23T09:10:07;9.10;99.90
42489;DHT22;28118;52.388;9.452;2022-11-23T09:12:33;9.20;99.90
42489;DHT22;28118;52.388;9.452;2022-11-23T09:15:00;9.20;99.90
42489;DHT22;28118;52.388;9.452;2022-11-23T09:17:27;9.30;99.90
42489;DHT22;28118;52.388;9.452;2022-11-23T09:19:55;9.30;99.90
42489;DHT22;28118;52.388;9.452;2022-11-23T09:22:22;9.30;99.90
42489;DHT22;28118;52.388;9.452;2022-11-23T09:24:49;9.30;99.90
42489;DHT22;28118;52.388;9.452;2022-11-23T09:27:15;9.30;99.90
42489;DHT22;28118;52.388;9.452;2022-11-23T09:29:42;9.30;99.90
42489;DHT22;28118;52.388;9.452;2022-11-23T09:32:09;9.30;99.90
42489;DHT22;28118;52.388;9.452;2022-11-23T09:34:36;9.30;99.90
42489;DHT22;28118;52.388;9.452;2022-11-23T09:37:03;9.30;99.90
42489;DHT22;28118;52.388;9.452;2022-11-23T09:39:29;9.30;99.90
42489;DHT22;28118;52.388;9.452;2022-11-23T09:50:10;9.40;99.90
42489;DHT22;28118;52.388;9.452;2022-11-23T09:52:41;9.50;99.90
42489;DHT22;28118;52.388;9.452;2022-11-23T09:57:59;9.50;99.90
42489;DHT22;28118;52.388;9.452;2022-11-23T10:00:29;9.50;99.90
42489;DHT22;28118;52.388;9.452;2022-11-23T10:03:00;9.50;99.90
42489;DHT22;28118;52.388;9.452;2022-11-23T10:05:32;9.50;99.90
42489;DHT22;28118;52.388;9.452;2022-11-23T10:08:34;9.50;99.90
42489;DHT22;28118;52.388;9.452;2022-11-23T10:11:18;9.50;99.90
42489;DHT22;28118;52.388;9.452;2022-11-23T10:14:18;9.60;99.90
42489;DHT22;28118;52.388;9.452;2022-11-23T10:16:56;9.60;99.90
42489;DHT22;28118;52.388;9.452;2022-11-23T10:19:44;9.70;99.90
42489;DHT22;28118;52.388;9.452;2022-11-23T10:22:30;9.70;99.90
42489;DHT22;28118;52.388;9.452;2022-11-23T10:24:59;9.80;99.90
42489;DHT22;28118;52.388;9.452;2022-11-23T10:27:28;9.90;99.90
42489;DHT22;28118;52.388;9.452;2022-11-23T10:29:57;10.10;99.90
42489;DHT22;28118;52.388;9.452;2022-11-23T10:32:36;10.20;99.90
42489;DHT22;28118;52.388;9.452;2022-11-23T10:35:22;10.40;99.90
42489;DHT22;28118;52.388;9.452;2022-11-23T10:37:50;10.50;99.90
42489;DHT22;28118;52.388;9.452;2022-11-23T10:40:23;10.70;99.90
42489;DHT22;28118;52.388;9.452;2022-11-23T10:42:55;10.90;99.90
42489;DHT22;28118;52.388;9.452;2022-11-23T10:45:26;11.10;99.90
42489;DHT22;28118;52.388;9.452;2022-11-23T10:47:57;11.10;99.90
42489;DHT22;28118;52.388;9.452;2022-11-23T10:50:28;11.20;99.90
42489;DHT22;28118;52.388;9.452;2022-11-23T10:53:13;11.30;99.90
42489;DHT22;28118;52.388;9.452;2022-11-23T10:55:50;11.30;99.90
42489;DHT22;28118;52.388;9.452;2022-11-23T10:58:45;11.20;99.90
42489;DHT22;28118;52.388;9.452;2022-11-23T11:01:23;11.20;99.90
42489;DHT22;28118;52.388;9.452;2022-11-23T11:03:52;11.50;99.90
42489;DHT22;28118;52.388;9.452;2022-11-23T11:06:28;11.60;99.90
42489;DHT22;28118;52.388;9.452;2022-11-23T11:08:58;11.60;99.90
42489;DHT22;28118;52.388;9.452;2022-11-23T11:11:32;11.40;99.90
42489;DHT22;28118;52.388;9.452;2022-11-23T11:16:36;11.10;99.90
42489;DHT22;28118;52.388;9.452;2022-11-23T11:21:51;11.10;99.90
42489;DHT22;28118;52.388;9.452;2022-11-23T11:24:23;11.50;99.90
42489;DHT22;28118;52.388;9.452;2022-11-23T11:26:57;11.90;99.90
42489;DHT22;28118;52.388;9.452;2022-11-23T11:32:30;12.40;99.90
42489;DHT22;28118;52.388;9.452;2022-11-23T11:35:31;12.40;99.90
42489;DHT22;28118;52.388;9.452;2022-11-23T11:38:10;12.60;99.90
42489;DHT22;28118;52.388;9.452;2022-11-23T11:46:15;13.00;99.90
42489;DHT22;28118;52.388;9.452;2022-11-23T11:49:06;12.90;99.90
42489;DHT22;28118;52.388;9.452;2022-11-23T11:51:38;12.90;99.90
42489;DHT22;28118;52.388;9.452;2022-11-23T11:54:29;13.00;99.90
42489;DHT22;28118;52.388;9.452;2022-11-23T11:57:19;13.00;99.90
42489;DHT22;28118;52.388;9.452;2022-11-23T11:59:48;13.00;99.90
42489;DHT22;28118;52.388;9.452;2022-11-23T12:08:12;13.10;99.90
42489;DHT22;28118;52.388;9.452;2022-11-23T12:10:54;13.20;99.90
42489;DHT22;28118;52.388;9.452;2022-11-23T12:13:24;13.30;99.90
42489;DHT22;28118;52.388;9.452;2022-11-23T12:22:46;13.10;99.90
42489;DHT22;28118;52.388;9.452;2022-11-23T12:28:31;13.30;99.90
42489;DHT22;28118;52.388;9.452;2022-11-23T12:31:07;13.30;99.90
42489;DHT22;28118;52.388;9.452;2022-11-23T12:33:50;13.40;99.90
42489;DHT22;28118;52.388;9.452;2022-11-23T12:44:54;13.30;99.90
42489;DHT22;28118;52.388;9.452;2022-11-23T12:50:20;13.30;99.90
42489;DHT22;28118;52.388;9.452;2022-11-23T12:53:00;13.20;99.90
42489;DHT22;28118;52.388;9.452;2022-11-23T12:58:27;12.70;99.90
42489;DHT22;28118;52.388;9.452;2022-11-23T13:07:05;11.60;99.90
42489;DHT22;28118;52.388;9.452;2022-11-23T13:18:20;10.80;99.90
42489;DHT22;28118;52.388;9.452;2022-11-23T13:23:39;10.60;99.90
42489;DHT22;28118;52.388;9.452;2022-11-23T13:26:21;10.70;99.90
42489;DHT22;28118;52.388;9.452;2022-11-23T13:28:52;10.70;99.90
42489;DHT22;28118;52.388;9.452;2022-11-23T13:31:23;10.80;99.90
42489;DHT22;28118;52.388;9.452;2022-11-23T13:33:56;10.80;99.90
42489;DHT22;28118;52.388;9.452;2022-11-23T13:42:13;11.10;99.90
42489;DHT22;28118;52.388;9.452;2022-11-23T13:44:40;11.10;99.90
42489;DHT22;28118;52.388;9.452;2022-11-23T13:47:18;11.10;99.90
42489;DHT22;28118;52.388;9.452;2022-11-23T13:49:47;11.10;99.90
42489;DHT22;28118;52.388;9.452;2022-11-23T13:55:04;11.00;99.90
42489;DHT22;28118;52.388;9.452;2022-11-23T13:57:40;10.90;99.90
42489;DHT22;28118;52.388;9.452;2022-11-23T14:00:45;10.70;99.90
42489;DHT22;28118;52.388;9.452;2022-11-23T14:03:51;10.60;99.90
42489;DHT22;28118;52.388;9.452;2022-11-23T14:06:33;10.50;99.90
42489;DHT22;28118;52.388;9.452;2022-11-23T14:09:15;10.40;99.90
42489;DHT22;28118;52.388;9.452;2022-11-23T14:14:28;10.50;99.90
42489;DHT22;28118;52.388;9.452;2022-11-23T14:17:24;10.50;99.90
42489;DHT22;28118;52.388;9.452;2022-11-23T14:20:24;10.40;99.90
42489;DHT22;28118;52.388;9.452;2022-11-23T14:25:28;10.20;99.90
42489;DHT22;28118;52.388;9.452;2022-11-23T14:31:11;9.80;99.90
42489;DHT22;28118;52.388;9.452;2022-11-23T14:34:02;9.70;99.90
42489;DHT22;28118;52.388;9.452;2022-11-23T14:36:43;9.60;99.90
42489;DHT22;28118;52.388;9.452;2022-11-23T14:41:55;9.30;99.90
42489;DHT22;28118;52.388;9.452;2022-11-23T14:44:26;9.30;99.90
42489;DHT22;28118;52.388;9.452;2022-11-23T14:47:03;9.20;99.90
42489;DHT22;28118;52.388;9.452;2022-11-23T14:49:30;9.10;99.90
42489;DHT22;28118;52.388;9.452;2022-11-23T14:51:58;9.00;99.90
42489;DHT22;28118;52.388;9.452;2022-11-23T14:54:26;8.90;99.90
42489;DHT22;28118;52.388;9.452;2022-11-23T14:56:59;8.90;99.90
42489;DHT22;28118;52.388;9.452;2022-11-23T14:59:31;8.80;99.90
42489;DHT22;28118;52.388;9.452;2022-11-23T15:05:11;8.80;99.90
42489;DHT22;28118;52.388;9.452;2022-11-23T15:10:38;8.70;99.90
42489;DHT22;28118;52.388;9.452;2022-11-23T15:13:26;8.60;99.90
42489;DHT22;28118;52.388;9.452;2022-11-23T15:15:54;8.50;99.90
42489;DHT22;28118;52.388;9.452;2022-11-23T15:18:33;8.40;99.90
42489;DHT22;28118;52.388;9.452;2022-11-23T15:21:22;8.40;99.90
42489;DHT22;28118;52.388;9.452;2022-11-23T15:23:55;8.50;99.90
42489;DHT22;28118;52.388;9.452;2022-11-23T15:26:30;8.50;99.90
42489;DHT22;28118;52.388;9.452;2022-11-23T15:29:28;8.50;99.90
42489;DHT22;28118;52.388;9.452;2022-11-23T15:31:56;8.40;99.90
42489;DHT22;28118;52.388;9.452;2022-11-23T15:34:43;8.30;99.90
42489;DHT22;28118;52.388;9.452;2022-11-23T15:37:10;8.30;99.90
42489;DHT22;28118;52.388;9.452;2022-11-23T15:39:37;8.20;99.90
42489;DHT22;28118;52.388;9.452;2022-11-23T15:42:04;8.30;99.90
42489;DHT22;28118;52.388;9.452;2022-11-23T15:44:31;8.20;99.90
42489;DHT22;28118;52.388;9.452;2022-11-23T15:47:04;8.20;99.90
42489;DHT22;28118;52.388;9.452;2022-11-23T15:49:39;8.00;99.90
42489;DHT22;28118;52.388;9.452;2022-11-23T15:52:12;8.00;99.90
42489;DHT22;28118;52.388;9.452;2022-11-23T15:54:40;7.90;99.90
42489;DHT22;28118;52.388;9.452;2022-11-23T15:57:15;7.80;99.90
42489;DHT22;28118;52.388;9.452;2022-11-23T15:59:56;7.70;99.90
42489;DHT22;28118;52.388;9.452;2022-11-23T16:02:28;7.80;99.90
42489;DHT22;28118;52.388;9.452;2022-11-23T16:08:00;7.80;99.90
42489;DHT22;28118;52.388;9.452;2022-11-23T16:10:28;7.60;99.90
42489;DHT22;28118;52.388;9.452;2022-11-23T16:13:00;7.60;99.90
42489;DHT22;28118;52.388;9.452;2022-11-23T16:15:34;7.50;99.90
42489;DHT22;28118;52.388;9.452;2022-11-23T16:20:47;7.40;99.90
42489;DHT22;28118;52.388;9.452;2022-11-23T16:23:21;7.40;99.90
42489;DHT22;28118;52.388;9.452;2022-11-23T16:26:00;7.30;99.90
42489;DHT22;28118;52.388;9.452;2022-11-23T16:28:29;7.30;99.90
42489;DHT22;28118;52.388;9.452;2022-11-23T16:30:57;7.20;99.90
42489;DHT22;28118;52.388;9.452;2022-11-23T16:33:24;7.10;99.90
42489;DHT22;28118;52.388;9.452;2022-11-23T16:35:51;7.10;99.90
42489;DHT22;28118;52.388;9.452;2022-11-23T16:38:18;7.10;99.90
42489;DHT22;28118;52.388;9.452;2022-11-23T16:40:45;7.00;99.90
42489;DHT22;28118;52.388;9.452;2022-11-23T16:43:14;7.00;99.90
42489;DHT22;28118;52.388;9.452;2022-11-23T16:45:46;7.00;99.90
42489;DHT22;28118;52.388;9.452;2022-11-23T16:50:53;6.90;99.90
42489;DHT22;28118;52.388;9.452;2022-11-23T16:53:21;6.90;99.90
42489;DHT22;28118;52.388;9.452;2022-11-23T16:55:51;6.90;99.90
42489;DHT22;28118;52.388;9.452;2022-11-23T16:58:18;7.00;99.90
42489;DHT22;28118;52.388;9.452;2022-11-23T17:00:45;6.90;99.90
42489;DHT22;28118;52.388;9.452;2022-11-23T17:03:19;6.80;99.90
42489;DHT22;28118;52.388;9.452;2022-11-23T17:05:46;6.60;99.90
42489;DHT22;28118;52.388;9.452;2022-11-23T17:08:13;6.50;99.90
42489;DHT22;28118;52.388;9.452;2022-11-23T17:10:49;6.40;99.90
42489;DHT22;28118;52.388;9.452;2022-11-23T17:13:25;6.40;99.90
42489;DHT22;28118;52.388;9.452;2022-11-23T17:15:53;6.20;99.90
42489;DHT22;28118;52.388;9.452;2022-11-23T17:18:20;6.10;99.90
42489;DHT22;28118;52.388;9.452;2022-11-23T17:20:47;5.90;99.90
42489;DHT22;28118;52.388;9.452;2022-11-23T17:23:14;5.80;99.90
42489;DHT22;28118;52.388;9.452;2022-11-23T17:25:41;5.80;99.90
42489;DHT22;28118;52.388;9.452;2022-11-23T17:28:14;5.80;99.90
42489;DHT22;28118;52.388;9.452;2022-11-23T17:30:41;5.90;99.90
42489;DHT22;28118;52.388;9.452;2022-11-23T17:33:10;5.80;99.90
42489;DHT22;28118;52.388;9.452;2022-11-23T17:35:37;5.80;99.90
42489;DHT22;28118;52.388;9.452;2022-11-23T17:38:05;5.80;99.90
42489;DHT22;28118;52.388;9.452;2022-11-23T17:40:37;5.70;99.90
42489;DHT22;28118;52.388;9.452;2022-11-23T17:43:04;5.70;99.90
42489;DHT22;28118;52.388;9.452;2022-11-23T17:45:30;5.60;99.90
42489;DHT22;28118;52.388;9.452;2022-11-23T17:47:57;5.50;99.90
42489;DHT22;28118;52.388;9.452;2022-11-23T17:50:29;5.50;99.90
42489;DHT22;28118;52.388;9.452;2022-11-23T17:52:55;5.30;99.90
42489;DHT22;28118;52.388;9.452;2022-11-23T17:55:22;5.20;99.90
42489;DHT22;28118;52.388;9.452;2022-11-23T17:57:49;5.10;99.90
42489;DHT22;28118;52.388;9.452;2022-11-23T18:00:21;5.00;99.90